sensor_id;sensor_type;location;lat;lon;timestamp;pressure;altitude;pressure_sealevel;temperature;humidity
15193;BME280;7697;51.630;7.484;2024-03-17T00:01:45;-17321.91;;;7.38;94.21
15193;BME280;7697;51.630;7.484;2024-03-17T00:06:47;-17319.22;;;7.30;94.17
15193;BME280;7697;51.630;7.484;2024-03-17T00:11:50;-17318.06;;;7.26;94.58
15193;BME280;7697;51.630;7.484;2024-03-17T00:16:52;-17315.53;;;7.19;93.98
15193;BME280;7697;51.630;7.484;2024-03-17T00:21:53;-17314.03;;;7.14;93.92
15193;BME280;7697;51.630;7.484;2024-03-17T00:26:57;-17312.19;;;7.08;93.91
15193;BME280;7697;51.630;7.484;2024-03-17T00:31:58;-17309.16;;;6.99;94.55
15193;BME280;7697;51.630;7.484;2024-03-17T00:37:00;-17307.81;;;6.95;94.35
15193;BME280;7697;51.630;7.484;2024-03-17T00:42:04;-17303.97;;;6.84;94.97
15193;BME280;7697;51.630;7.484;2024-03-17T00:47:07;-17303.13;;;6.81;95.21
15193;BME280;7697;51.630;7.484;2024-03-17T00:52:09;-17300.59;;;6.73;95.72
15193;BME280;7697;51.630;7.484;2024-03-17T00:57:12;-17299.59;;;6.70;95.40
15193;BME280;7697;51.630;7.484;2024-03-17T01:02:15;-17298.44;;;6.67;95.71
15193;BME280;7697;51.630;7.484;2024-03-17T01:07:18;-17294.56;;;6.55;95.02
15193;BME280;7697;51.630;7.484;2024-03-17T01:12:21;-17293.91;;;6.53;95.33
15193;BME280;7697;51.630;7.484;2024-03-17T01:17:22;-17290.72;;;6.44;96.14
15193;BME280;7697;51.630;7.484;2024-03-17T01:22:24;-17288.19;;;6.36;95.49
15193;BME280;7697;51.630;7.484;2024-03-17T01:27:27;-17287.88;;;6.35;95.26
15193;BME280;7697;51.630;7.484;2024-03-17T01:32:29;-17282.66;;;6.19;95.84
15193;BME280;7697;51.630;7.484;2024-03-17T01:37:31;-17282.84;;;6.20;96.03
15193;BME280;7697;51.630;7.484;2024-03-17T01:42:34;-17280.50;;;6.13;96.12
15193;BME280;7697;51.630;7.484;2024-03-17T01:47:36;-17280.16;;;6.12;96.11
15193;BME280;7697;51.630;7.484;2024-03-17T01:52:38;-17279.47;;;6.10;95.79
15193;BME280;7697;51.630;7.484;2024-03-17T01:57:42;-17275.97;;;5.99;96.06
15193;BME280;7697;51.630;7.484;2024-03-17T02:02:44;-17275.63;;;5.98;95.74
15193;BME280;7697;51.630;7.484;2024-03-17T02:07:45;-17271.59;;;5.86;96.24
15193;BME280;7697;51.630;7.484;2024-03-17T02:12:49;-17270.75;;;5.83;95.89
15193;BME280;7697;51.630;7.484;2024-03-17T02:17:50;-17269.41;;;5.79;96.69
15193;BME280;7697;51.630;7.484;2024-03-17T02:22:53;-17267.75;;;5.74;96.65
15193;BME280;7697;51.630;7.484;2024-03-17T02:27:55;-17266.75;;;5.71;96.65
15193;BME280;7697;51.630;7.484;2024-03-17T02:32:57;-17263.72;;;5.62;96.87
15193;BME280;7697;51.630;7.484;2024-03-17T02:38:00;-17260.53;;;5.52;97.22
15193;BME280;7697;51.630;7.484;2024-03-17T02:43:03;-17257.00;;;5.42;97.23
15193;BME280;7697;51.630;7.484;2024-03-17T02:48:05;-17257.69;;;5.44;98.04
15193;BME280;7697;51.630;7.484;2024-03-17T02:53:09;-17256.69;;;5.41;97.83
15193;BME280;7697;51.630;7.484;2024-03-17T02:58:11;-17255.34;;;5.37;98.02
15193;BME280;7697;51.630;7.484;2024-03-17T03:03:12;-17254.34;;;5.34;98.17
15193;BME280;7697;51.630;7.484;2024-03-17T03:08:15;-17252.66;;;5.28;98.45
15193;BME280;7697;51.630;7.484;2024-03-17T03:13:17;-17249.63;;;5.19;98.10
15193;BME280;7697;51.630;7.484;2024-03-17T03:18:19;-17246.94;;;5.11;98.24
15193;BME280;7697;51.630;7.484;2024-03-17T03:23:23;-17244.94;;;5.05;99.43
15193;BME280;7697;51.630;7.484;2024-03-17T03:28:25;-17246.94;;;5.11;98.88
15193;BME280;7697;51.630;7.484;2024-03-17T03:33:27;-17245.63;;;5.07;98.64
15193;BME280;7697;51.630;7.484;2024-03-17T03:38:30;-17245.09;;;5.06;98.98
15193;BME280;7697;51.630;7.484;2024-03-17T03:43:32;-17247.28;;;5.12;98.50
15193;BME280;7697;51.630;7.484;2024-03-17T03:48:34;-17248.13;;;5.15;99.09
15193;BME280;7697;51.630;7.484;2024-03-17T03:53:37;-17246.28;;;5.09;98.51
15193;BME280;7697;51.630;7.484;2024-03-17T03:58:40;-17246.44;;;5.10;98.76
15193;BME280;7697;51.630;7.484;2024-03-17T04:03:43;-17247.13;;;5.12;98.43
15193;BME280;7697;51.630;7.484;2024-03-17T04:08:46;-17245.94;;;5.08;98.71
15193;BME280;7697;51.630;7.484;2024-03-17T04:13:47;-17245.78;;;5.08;98.33
15193;BME280;7697;51.630;7.484;2024-03-17T04:18:49;-17244.09;;;5.03;98.41
15193;BME280;7697;51.630;7.484;2024-03-17T04:23:52;-17243.44;;;5.01;98.22
15193;BME280;7697;51.630;7.484;2024-03-17T04:28:54;-17242.59;;;4.98;99.12
15193;BME280;7697;51.630;7.484;2024-03-17T04:33:55;-17241.25;;;4.94;98.63
15193;BME280;7697;51.630;7.484;2024-03-17T04:38:58;-17239.75;;;4.89;98.40
15193;BME280;7697;51.630;7.484;2024-03-17T04:44:00;-17240.91;;;4.93;99.03
15193;BME280;7697;51.630;7.484;2024-03-17T04:49:02;-17239.91;;;4.90;98.66
15193;BME280;7697;51.630;7.484;2024-03-17T04:54:05;-17240.25;;;4.91;99.23
15193;BME280;7697;51.630;7.484;2024-03-17T04:59:07;-17239.25;;;4.88;98.93
15193;BME280;7697;51.630;7.484;2024-03-17T05:04:09;-17239.25;;;4.88;98.71
15193;BME280;7697;51.630;7.484;2024-03-17T05:09:12;-17238.22;;;4.85;98.99
15193;BME280;7697;51.630;7.484;2024-03-17T05:14:14;-17233.72;;;4.71;99.33
15193;BME280;7697;51.630;7.484;2024-03-17T05:19:16;-17232.88;;;4.69;98.89
15193;BME280;7697;51.630;7.484;2024-03-17T05:24:20;-17232.69;;;4.68;99.37
15193;BME280;7697;51.630;7.484;2024-03-17T05:29:22;-17232.69;;;4.68;99.30
15193;BME280;7697;51.630;7.484;2024-03-17T05:34:23;-17235.88;;;4.78;99.84
15193;BME280;7697;51.630;7.484;2024-03-17T05:39:27;-17236.91;;;4.81;99.29
15193;BME280;7697;51.630;7.484;2024-03-17T05:44:28;-17237.56;;;4.83;99.74
15193;BME280;7697;51.630;7.484;2024-03-17T05:49:34;-17237.56;;;4.83;99.27
15193;BME280;7697;51.630;7.484;2024-03-17T05:54:37;-17235.56;;;4.77;99.56
15193;BME280;7697;51.630;7.484;2024-03-17T05:59:38;-17232.88;;;4.69;99.02
15193;BME280;7697;51.630;7.484;2024-03-17T06:04:40;-17232.03;;;4.66;99.23
15193;BME280;7697;51.630;7.484;2024-03-17T06:09:44;-17231.19;;;4.64;99.48
15193;BME280;7697;51.630;7.484;2024-03-17T06:14:47;-17229.69;;;4.59;99.53
15193;BME280;7697;51.630;7.484;2024-03-17T06:19:49;-17228.69;;;4.56;99.73
15193;BME280;7697;51.630;7.484;2024-03-17T06:24:52;-17229.69;;;4.59;99.91
15193;BME280;7697;51.630;7.484;2024-03-17T06:29:54;-17230.53;;;4.62;100.00
15193;BME280;7697;51.630;7.484;2024-03-17T06:34:57;-17231.38;;;4.64;100.00
15193;BME280;7697;51.630;7.484;2024-03-17T06:40:00;-17235.22;;;4.76;100.00
15193;BME280;7697;51.630;7.484;2024-03-17T06:45:04;-17237.56;;;4.83;100.00
15193;BME280;7697;51.630;7.484;2024-03-17T06:50:09;-17243.28;;;5.00;100.00
15193;BME280;7697;51.630;7.484;2024-03-17T06:55:13;-17245.94;;;5.08;99.91
15193;BME280;7697;51.630;7.484;2024-03-17T07:00:15;-17248.63;;;5.16;100.00
15193;BME280;7697;51.630;7.484;2024-03-17T07:05:17;-17252.47;;;5.28;100.00
15193;BME280;7697;51.630;7.484;2024-03-17T07:10:21;-17262.72;;;5.59;100.00
15193;BME280;7697;51.630;7.484;2024-03-17T07:15:22;-17271.59;;;5.86;99.43
15193;BME280;7697;51.630;7.484;2024-03-17T07:20:24;-17280.50;;;6.13;98.94
15193;BME280;7697;51.630;7.484;2024-03-17T07:25:28;-17286.03;;;6.29;98.11
15193;BME280;7697;51.630;7.484;2024-03-17T07:30:29;-17295.59;;;6.58;98.01
15193;BME280;7697;51.630;7.484;2024-03-17T07:35:31;-17307.81;;;6.95;97.45
15193;BME280;7697;51.630;7.484;2024-03-17T07:40:35;-17320.91;;;7.35;96.32
15193;BME280;7697;51.630;7.484;2024-03-17T07:45:37;-17333.97;;;7.74;95.56
15193;BME280;7697;51.630;7.484;2024-03-17T07:50:39;-17347.22;;;8.14;94.45
15193;BME280;7697;51.630;7.484;2024-03-17T07:55:42;-17351.41;;;8.27;94.39
15193;BME280;7697;51.630;7.484;2024-03-17T08:00:43;-17351.41;;;8.27;93.72
15193;BME280;7697;51.630;7.484;2024-03-17T08:05:48;-17353.44;;;8.33;94.03
15193;BME280;7697;51.630;7.484;2024-03-17T08:10:51;-17356.28;;;8.42;93.80
15193;BME280;7697;51.630;7.484;2024-03-17T08:15:58;-17361.31;;;8.57;93.51
15193;BME280;7697;51.630;7.484;2024-03-17T08:21:00;-17365.00;;;8.68;93.66
15193;BME280;7697;51.630;7.484;2024-03-17T08:26:04;-17369.72;;;8.82;93.68
15193;BME280;7697;51.630;7.484;2024-03-17T08:31:05;-17375.75;;;9.00;93.21
15193;BME280;7697;51.630;7.484;2024-03-17T08:36:08;-17383.47;;;9.24;92.20
15193;BME280;7697;51.630;7.484;2024-03-17T08:41:12;-17391.53;;;9.48;91.48
15193;BME280;7697;51.630;7.484;2024-03-17T09:33:35;-17494.69;;;12.60;80.55
15193;BME280;7697;51.630;7.484;2024-03-17T12:08:47;-17595.88;;;15.65;67.53
15193;BME280;7697;51.630;7.484;2024-03-17T12:19:06;-17607.97;;;16.02;67.69
15193;BME280;7697;51.630;7.484;2024-03-17T12:24:14;-17611.66;;;16.13;65.94
15193;BME280;7697;51.630;7.484;2024-03-17T12:29:24;-17617.38;;;16.30;64.73
15193;BME280;7697;51.630;7.484;2024-03-17T12:34:29;-17615.69;;;16.25;63.76
15193;BME280;7697;51.630;7.484;2024-03-17T12:39:34;-17621.41;;;16.42;64.75
15193;BME280;7697;51.630;7.484;2024-03-17T12:44:46;-17627.09;;;16.60;63.71
15193;BME280;7697;51.630;7.484;2024-03-17T12:49:50;-17621.72;;;16.43;63.36
15193;BME280;7697;51.630;7.484;2024-03-17T12:54:57;-17623.91;;;16.50;63.27
15193;BME280;7697;51.630;7.484;2024-03-17T13:00:17;-17627.78;;;16.62;61.81
15193;BME280;7697;51.630;7.484;2024-03-17T13:05:35;-17618.19;;;16.33;59.64
15193;BME280;7697;51.630;7.484;2024-03-17T13:10:38;-17625.25;;;16.54;61.87
15193;BME280;7697;51.630;7.484;2024-03-17T13:15:41;-17632.97;;;16.77;60.72
15193;BME280;7697;51.630;7.484;2024-03-17T13:20:43;-17631.13;;;16.72;60.72
15193;BME280;7697;51.630;7.484;2024-03-17T13:25:47;-17628.78;;;16.65;62.16
15193;BME280;7697;51.630;7.484;2024-03-17T13:30:48;-17628.78;;;16.65;61.26
15193;BME280;7697;51.630;7.484;2024-03-17T13:35:50;-17626.75;;;16.59;62.82
15193;BME280;7697;51.630;7.484;2024-03-17T13:40:53;-17627.44;;;16.61;62.31
15193;BME280;7697;51.630;7.484;2024-03-17T13:45:55;-17627.44;;;16.61;62.73
15193;BME280;7697;51.630;7.484;2024-03-17T13:50:57;-17626.25;;;16.57;63.16
15193;BME280;7697;51.630;7.484;2024-03-17T13:56:00;-17630.47;;;16.70;63.55
15193;BME280;7697;51.630;7.484;2024-03-17T14:01:02;-17630.97;;;16.71;63.11
15193;BME280;7697;51.630;7.484;2024-03-17T14:06:04;-17626.09;;;16.57;62.90
15193;BME280;7697;51.630;7.484;2024-03-17T14:11:07;-17623.75;;;16.49;62.75
15193;BME280;7697;51.630;7.484;2024-03-17T14:16:09;-17623.41;;;16.48;62.68
15193;BME280;7697;51.630;7.484;2024-03-17T14:21:11;-17622.72;;;16.46;63.08
15193;BME280;7697;51.630;7.484;2024-03-17T14:26:14;-17620.03;;;16.38;nan
15193;BME280;7697;51.630;7.484;2024-03-17T14:31:16;-17615.84;;;16.26;62.49
15193;BME280;7697;51.630;7.484;2024-03-17T14:36:17;-17611.31;;;16.12;62.85
15193;BME280;7697;51.630;7.484;2024-03-17T14:41:29;-17612.16;;;16.14;63.28
15193;BME280;7697;51.630;7.484;2024-03-17T14:46:31;-17612.34;;;16.15;64.21
15193;BME280;7697;51.630;7.484;2024-03-17T14:51:33;-17607.81;;;16.01;63.99
15193;BME280;7697;51.630;7.484;2024-03-17T14:56:36;-17603.94;;;15.90;63.68
15193;BME280;7697;51.630;7.484;2024-03-17T15:01:38;-17600.09;;;15.78;64.70
15193;BME280;7697;51.630;7.484;2024-03-17T15:06:40;-17599.56;;;15.76;65.02
15193;BME280;7697;51.630;7.484;2024-03-17T15:11:44;-17596.56;;;15.67;65.03
15193;BME280;7697;51.630;7.484;2024-03-17T15:16:46;-17592.03;;;15.54;64.04
15193;BME280;7697;51.630;7.484;2024-03-17T15:21:48;-17587.81;;;15.41;63.67
15193;BME280;7697;51.630;7.484;2024-03-17T15:26:51;-17588.84;;;15.44;64.52
15193;BME280;7697;51.630;7.484;2024-03-17T15:31:53;-17587.81;;;15.41;64.63
15193;BME280;7697;51.630;7.484;2024-03-17T15:36:57;-17586.50;;;15.37;65.00
15193;BME280;7697;51.630;7.484;2024-03-17T15:42:02;-17586.66;;;15.37;66.00
15193;BME280;7697;51.630;7.484;2024-03-17T15:47:28;-17582.13;;;15.24;66.76
15193;BME280;7697;51.630;7.484;2024-03-17T15:52:29;-17578.25;;;15.12;67.78
15193;BME280;7697;51.630;7.484;2024-03-17T15:57:31;-17576.25;;;15.06;68.26
15193;BME280;7697;51.630;7.484;2024-03-17T16:02:34;-17575.41;;;15.03;69.06
15193;BME280;7697;51.630;7.484;2024-03-17T16:07:38;-17577.09;;;15.09;69.80
15193;BME280;7697;51.630;7.484;2024-03-17T16:12:40;-17576.41;;;15.07;69.36
15193;BME280;7697;51.630;7.484;2024-03-17T16:17:44;-17571.38;;;14.91;69.72
15193;BME280;7697;51.630;7.484;2024-03-17T16:22:45;-17570.03;;;14.87;70.37
15193;BME280;7697;51.630;7.484;2024-03-17T16:27:59;-17567.88;;;14.81;70.39
15193;BME280;7697;51.630;7.484;2024-03-17T16:33:04;-17565.84;;;14.75;70.85
15193;BME280;7697;51.630;7.484;2024-03-17T16:48:45;-17563.00;;;14.66;71.08
15193;BME280;7697;51.630;7.484;2024-03-17T16:53:47;-17564.66;;;14.71;70.89
15193;BME280;7697;51.630;7.484;2024-03-17T17:20:24;-17554.94;;;14.42;72.89
15193;BME280;7697;51.630;7.484;2024-03-17T17:25:26;-17550.91;;;14.30;73.14
15193;BME280;7697;51.630;7.484;2024-03-17T17:30:28;-17546.88;;;14.17;73.24
15193;BME280;7697;51.630;7.484;2024-03-17T17:35:33;-17545.88;;;14.14;73.50
15193;BME280;7697;51.630;7.484;2024-03-17T17:40:37;-17542.53;;;14.04;73.75
15193;BME280;7697;51.630;7.484;2024-03-17T17:45:39;-17541.34;;;14.01;74.06
15193;BME280;7697;51.630;7.484;2024-03-17T17:50:42;-17539.50;;;13.95;74.24
15193;BME280;7697;51.630;7.484;2024-03-17T17:55:44;-17537.81;;;13.90;74.96
15193;BME280;7697;51.630;7.484;2024-03-17T18:00:46;-17537.31;;;13.88;74.80
15193;BME280;7697;51.630;7.484;2024-03-17T18:05:51;-17534.47;;;13.80;74.91
15193;BME280;7697;51.630;7.484;2024-03-17T18:10:54;-17532.78;;;13.75;75.25
15193;BME280;7697;51.630;7.484;2024-03-17T18:15:56;-17529.78;;;13.66;76.24
15193;BME280;7697;51.630;7.484;2024-03-17T18:21:00;-17528.41;;;13.62;76.24
15193;BME280;7697;51.630;7.484;2024-03-17T18:26:06;-17525.41;;;13.52;76.93
15193;BME280;7697;51.630;7.484;2024-03-17T18:31:09;-17521.03;;;13.39;77.12
15193;BME280;7697;51.630;7.484;2024-03-17T18:36:13;-17518.53;;;13.32;77.72
15193;BME280;7697;51.630;7.484;2024-03-17T18:41:15;-17517.34;;;13.28;77.97
15193;BME280;7697;51.630;7.484;2024-03-17T18:46:18;-17516.34;;;13.25;78.45
15193;BME280;7697;51.630;7.484;2024-03-17T18:51:23;-17515.34;;;13.22;78.58
15193;BME280;7697;51.630;7.484;2024-03-17T18:56:24;-17514.00;;;13.18;78.55
15193;BME280;7697;51.630;7.484;2024-03-17T19:01:26;-17514.16;;;13.19;79.38
15193;BME280;7697;51.630;7.484;2024-03-17T19:06:30;-17513.66;;;13.17;79.21
15193;BME280;7697;51.630;7.484;2024-03-17T19:11:32;-17512.16;;;13.12;79.57
15193;BME280;7697;51.630;7.484;2024-03-17T19:16:34;-17509.13;;;13.03;79.50
15193;BME280;7697;51.630;7.484;2024-03-17T19:21:38;-17508.13;;;13.00;79.68
15193;BME280;7697;51.630;7.484;2024-03-17T19:26:46;-17507.13;;;12.97;80.13
15193;BME280;7697;51.630;7.484;2024-03-17T19:31:48;-17505.94;;;12.94;80.48
15193;BME280;7697;51.630;7.484;2024-03-17T19:36:52;-17505.94;;;12.94;80.35
15193;BME280;7697;51.630;7.484;2024-03-17T19:41:54;-17505.25;;;12.92;80.58
15193;BME280;7697;51.630;7.484;2024-03-17T19:46:56;-17501.56;;;12.81;80.71
15193;BME280;7697;51.630;7.484;2024-03-17T19:51:59;-17500.91;;;12.78;80.47
15193;BME280;7697;51.630;7.484;2024-03-17T19:57:01;-17497.03;;;12.67;80.87
15193;BME280;7697;51.630;7.484;2024-03-17T20:02:03;-17496.19;;;12.64;81.28
15193;BME280;7697;51.630;7.484;2024-03-17T20:07:06;-17494.53;;;12.59;81.53
15193;BME280;7697;51.630;7.484;2024-03-17T20:12:08;-17493.53;;;12.56;81.83
15193;BME280;7697;51.630;7.484;2024-03-17T20:17:10;-17492.00;;;12.52;81.69
15193;BME280;7697;51.630;7.484;2024-03-17T20:22:13;-17491.16;;;12.49;82.03
15193;BME280;7697;51.630;7.484;2024-03-17T20:27:15;-17491.16;;;12.49;81.68
15193;BME280;7697;51.630;7.484;2024-03-17T20:32:16;-17487.97;;;12.39;82.04
15193;BME280;7697;51.630;7.484;2024-03-17T20:37:19;-17488.66;;;12.42;82.25
15193;BME280;7697;51.630;7.484;2024-03-17T20:42:24;-17487.31;;;12.37;82.53
15193;BME280;7697;51.630;7.484;2024-03-17T20:47:25;-17486.63;;;12.35;82.58
15193;BME280;7697;51.630;7.484;2024-03-17T20:52:28;-17485.81;;;12.33;82.48
15193;BME280;7697;51.630;7.484;2024-03-17T20:57:30;-17484.63;;;12.29;82.84
15193;BME280;7697;51.630;7.484;2024-03-17T21:02:32;-17484.47;;;12.29;82.75
15193;BME280;7697;51.630;7.484;2024-03-17T21:07:35;-17483.97;;;12.27;82.70
15193;BME280;7697;51.630;7.484;2024-03-17T21:12:37;-17483.78;;;12.27;83.22
15193;BME280;7697;51.630;7.484;2024-03-17T21:17:39;-17482.13;;;12.22;82.75
15193;BME280;7697;51.630;7.484;2024-03-17T21:22:42;-17481.44;;;12.20;83.30
15193;BME280;7697;51.630;7.484;2024-03-17T21:27:45;-17482.44;;;12.23;82.90
15193;BME280;7697;51.630;7.484;2024-03-17T21:32:49;-17481.44;;;12.20;83.08
15193;BME280;7697;51.630;7.484;2024-03-17T21:37:53;-17480.78;;;12.18;82.78
15193;BME280;7697;51.630;7.484;2024-03-17T21:42:54;-17479.09;;;12.13;83.24
15193;BME280;7697;51.630;7.484;2024-03-17T21:47:56;-17478.59;;;12.11;83.40
15193;BME280;7697;51.630;7.484;2024-03-17T21:52:59;-17479.09;;;12.13;83.09
15193;BME280;7697;51.630;7.484;2024-03-17T21:58:01;-17478.75;;;12.12;83.05
15193;BME280;7697;51.630;7.484;2024-03-17T22:03:03;-17480.28;;;12.16;83.35
15193;BME280;7697;51.630;7.484;2024-03-17T22:08:06;-17480.78;;;12.18;83.35
15193;BME280;7697;51.630;7.484;2024-03-17T22:13:08;-17478.94;;;12.12;83.23
15193;BME280;7697;51.630;7.484;2024-03-17T22:18:10;-17476.41;;;12.05;83.34
15193;BME280;7697;51.630;7.484;2024-03-17T22:23:13;-17474.41;;;11.98;83.57
15193;BME280;7697;51.630;7.484;2024-03-17T22:28:15;-17471.88;;;11.91;84.13
15193;BME280;7697;51.630;7.484;2024-03-17T22:33:17;-17472.38;;;11.92;84.66
15193;BME280;7697;51.630;7.484;2024-03-17T22:38:20;-17471.53;;;11.90;84.59
15193;BME280;7697;51.630;7.484;2024-03-17T22:43:21;-17470.72;;;11.87;84.56
15193;BME280;7697;51.630;7.484;2024-03-17T22:48:24;-17470.72;;;11.87;84.64
15193;BME280;7697;51.630;7.484;2024-03-17T22:53:29;-17469.34;;;11.83;84.74
15193;BME280;7697;51.630;7.484;2024-03-17T22:58:31;-17470.38;;;11.86;84.64
15193;BME280;7697;51.630;7.484;2024-03-17T23:03:34;-17469.19;;;11.83;84.67
15193;BME280;7697;51.630;7.484;2024-03-17T23:08:37;-17469.34;;;11.83;85.24
15193;BME280;7697;51.630;7.484;2024-03-17T23:13:39;-17468.19;;;11.80;84.94
15193;BME280;7697;51.630;7.484;2024-03-17T23:18:40;-17468.69;;;11.81;84.94
15193;BME280;7697;51.630;7.484;2024-03-17T23:23:44;-17470.03;;;11.85;85.07
15193;BME280;7697;51.630;7.484;2024-03-17T23:28:46;-17470.19;;;11.86;84.86
15193;BME280;7697;51.630;7.484;2024-03-17T23:33:48;-17467.69;;;11.78;85.64
15193;BME280;7697;51.630;7.484;2024-03-17T23:38:51;-17467.19;;;11.77;85.58
15193;BME280;7697;51.630;7.484;2024-03-17T23:43:55;-17465.00;;;11.70;85.90
15193;BME280;7697;51.630;7.484;2024-03-17T23:48:57;-17462.97;;;11.64;86.44
15193;BME280;7697;51.630;7.484;2024-03-17T23:54:00;-17460.47;;;11.56;86.97
15193;BME280;7697;51.630;7.484;2024-03-17T23:59:02;-17459.47;;;11.53;87.20
